createdAt,value
2023-01-19T00:00:33.454Z,61.88
2023-01-19T00:01:33.044Z,69.55
2023-01-19T00:02:32.902Z,67.68
2023-01-19T00:03:32.898Z,70.56
2023-01-19T00:04:32.854Z,68.56
2023-01-19T00:05:32.837Z,68.40
2023-01-19T00:06:32.880Z,69.05
2023-01-19T00:07:32.793Z,69.51
2023-01-19T00:08:32.816Z,67.25
2023-01-19T00:09:32.823Z,60.61
2023-01-19T00:10:32.787Z,70.02
2023-01-19T00:11:32.750Z,66.59
2023-01-19T00:12:32.758Z,70.74
2023-01-19T00:13:32.764Z,70.09
2023-01-19T00:14:32.667Z,62.70
2023-01-19T00:15:32.804Z,66.21
2023-01-19T00:16:32.925Z,63.48
2023-01-19T00:17:33.383Z,65.49
2023-01-19T00:18:32.634Z,70.29
2023-01-19T00:19:32.715Z,60.91
2023-01-19T00:20:32.673Z,64.51
2023-01-19T00:21:32.718Z,69.82
2023-01-19T00:22:32.600Z,64.07
2023-01-19T00:23:32.633Z,67.19
2023-01-19T00:24:32.652Z,72.69
2023-01-19T00:25:32.662Z,64.67
2023-01-19T00:26:32.569Z,67.47
2023-01-19T00:27:32.622Z,60.13
2023-01-19T00:28:32.584Z,59.86
2023-01-19T00:29:32.617Z,62.01
2023-01-19T00:30:32.668Z,71.37
2023-01-19T00:31:32.549Z,71.24
2023-01-19T00:32:32.643Z,67.18
2023-01-19T00:33:32.507Z,68.58
2023-01-19T00:34:32.464Z,70.49
2023-01-19T00:35:32.438Z,58.30
2023-01-19T00:36:32.484Z,63.34
2023-01-19T00:37:32.540Z,57.14
2023-01-19T00:38:32.453Z,68.62
2023-01-19T00:39:32.475Z,70.45
2023-01-19T00:40:32.548Z,61.54
2023-01-19T00:41:32.434Z,64.14
2023-01-19T00:42:32.473Z,62.42
2023-01-19T00:43:32.560Z,63.73
2023-01-19T00:44:32.367Z,65.21
2023-01-19T00:45:32.403Z,69.06
2023-01-19T00:46:32.448Z,62.63
2023-01-19T00:47:32.397Z,68.31
2023-01-19T00:48:32.370Z,66.61
2023-01-19T00:49:32.330Z,69.38
2023-01-19T00:50:32.332Z,66.65
2023-01-19T00:51:32.376Z,64.45
2023-01-19T00:52:32.521Z,62.31
2023-01-19T00:53:32.324Z,61.72
2023-01-19T00:54:32.306Z,59.00
2023-01-19T00:55:32.285Z,62.20
2023-01-19T00:56:32.355Z,62.84
2023-01-19T00:57:32.233Z,72.05
2023-01-19T00:58:32.210Z,70.98
2023-01-19T00:59:32.149Z,60.87
2023-01-19T01:00:32.186Z,56.90
2023-01-19T01:01:45.263Z,67.97
2023-01-19T01:02:33.344Z,73.12
2023-01-19T01:03:32.146Z,63.88
2023-01-19T01:04:32.137Z,68.57
2023-01-19T01:05:32.124Z,68.79
2023-01-19T01:06:32.084Z,64.36
2023-01-19T01:07:32.085Z,64.28
2023-01-19T01:08:32.111Z,67.98
2023-01-19T01:09:32.063Z,65.77
2023-01-19T01:10:32.075Z,70.26
2023-01-19T01:11:32.058Z,63.20
2023-01-19T01:12:32.019Z,53.36
2023-01-19T01:13:32.372Z,65.71
2023-01-19T01:14:32.038Z,73.47
2023-01-19T01:15:32.015Z,55.76
2023-01-19T01:16:32.046Z,68.18
2023-01-19T01:17:32.027Z,62.12
2023-01-19T01:18:32.053Z,58.08
2023-01-19T01:19:32.097Z,61.83
2023-01-19T01:20:32.000Z,68.02
2023-01-19T01:21:31.963Z,49.98
2023-01-19T01:22:31.980Z,73.10
2023-01-19T01:23:32.018Z,70.03
2023-01-19T01:24:31.946Z,64.73
2023-01-19T01:25:31.948Z,67.48
2023-01-19T01:26:31.935Z,60.16
2023-01-19T01:27:31.881Z,58.86
2023-01-19T01:28:31.913Z,50.18
2023-01-19T01:29:31.911Z,54.50
2023-01-19T01:30:31.862Z,59.12
2023-01-19T01:31:31.853Z,68.96
2023-01-19T01:32:31.863Z,70.21
2023-01-19T01:33:39.935Z,64.12
2023-01-19T01:34:32.828Z,70.03
2023-01-19T01:35:31.906Z,70.29
2023-01-19T01:36:32.791Z,70.59
2023-01-19T01:37:31.773Z,63.84
2023-01-19T01:38:31.814Z,64.49
2023-01-19T01:39:31.801Z,67.64
2023-01-19T01:40:32.481Z,59.88
2023-01-19T01:41:31.742Z,55.26
2023-01-19T01:42:31.727Z,70.05
2023-01-19T01:43:31.745Z,73.87
2023-01-19T01:44:31.796Z,69.36
2023-01-19T01:45:31.745Z,61.22
2023-01-19T01:46:31.724Z,58.38
2023-01-19T01:47:31.696Z,69.76
2023-01-19T01:48:31.691Z,64.20
2023-01-19T01:49:31.695Z,56.69
2023-01-19T01:50:31.672Z,71.01
2023-01-19T01:51:31.671Z,65.68
2023-01-19T01:52:31.749Z,60.57
2023-01-19T01:53:31.607Z,63.14
2023-01-19T01:54:31.619Z,58.55
2023-01-19T01:55:31.616Z,59.83
2023-01-19T01:56:31.609Z,70.55
2023-01-19T01:57:31.592Z,62.02
2023-01-19T01:58:31.555Z,70.30
2023-01-19T01:59:31.594Z,73.02
2023-01-19T02:00:31.606Z,58.67
2023-01-19T02:01:31.658Z,63.53
2023-01-19T02:02:31.729Z,68.19
2023-01-19T02:03:31.545Z,67.00
2023-01-19T02:04:31.497Z,64.44
2023-01-19T02:05:31.513Z,72.04
2023-01-19T02:06:31.495Z,69.81
2023-01-19T02:07:31.521Z,67.63
2023-01-19T02:08:31.476Z,69.68
2023-01-19T02:09:31.441Z,71.62
2023-01-19T02:10:32.334Z,63.87
2023-01-19T02:11:31.418Z,65.17
2023-01-19T02:12:31.493Z,71.64
2023-01-19T02:13:31.435Z,66.43
2023-01-19T02:14:31.405Z,63.62
2023-01-19T02:15:31.402Z,70.61
2023-01-19T02:16:31.387Z,63.46
2023-01-19T02:17:31.392Z,58.44
2023-01-19T02:18:31.367Z,70.20
2023-01-19T02:19:31.384Z,73.44
2023-01-19T02:20:31.360Z,70.45
2023-01-19T02:21:31.441Z,65.31
2023-01-19T02:22:31.311Z,59.90
2023-01-19T02:23:31.345Z,58.29
2023-01-19T02:24:31.301Z,72.80
2023-01-19T02:25:31.362Z,70.05
2023-01-19T02:26:31.300Z,71.94
2023-01-19T02:27:31.282Z,71.03
2023-01-19T02:28:31.251Z,62.81
2023-01-19T02:29:31.224Z,64.21
2023-01-19T02:30:31.324Z,60.13
2023-01-19T02:31:31.261Z,68.98
2023-01-19T02:32:31.213Z,58.17
2023-01-19T02:33:31.219Z,62.85
2023-01-19T02:34:31.190Z,62.61
2023-01-19T02:35:31.175Z,64.79
2023-01-19T02:36:31.159Z,68.54
2023-01-19T02:37:31.179Z,70.66
2023-01-19T02:38:31.192Z,67.43
2023-01-19T02:39:31.185Z,64.58
2023-01-19T02:40:31.147Z,55.97
2023-01-19T02:41:31.207Z,73.43
2023-01-19T02:42:31.231Z,73.46
2023-01-19T02:43:31.283Z,70.76
2023-01-19T02:44:31.116Z,70.22
2023-01-19T02:45:31.187Z,69.62
2023-01-19T02:46:31.073Z,64.71
2023-01-19T02:47:31.107Z,57.82
2023-01-19T02:48:31.145Z,68.57
2023-01-19T02:49:31.141Z,63.89
2023-01-19T02:50:32.104Z,72.61
2023-01-19T02:51:31.073Z,70.80
2023-01-19T02:52:31.138Z,72.71
2023-01-19T02:53:31.172Z,69.60
2023-01-19T02:54:31.000Z,58.54
2023-01-19T02:55:31.112Z,67.69
2023-01-19T02:56:31.127Z,70.48
2023-01-19T02:57:30.995Z,64.85
2023-01-19T02:58:30.985Z,58.10
2023-01-19T02:59:31.052Z,57.35
2023-01-19T03:00:31.013Z,70.47
2023-01-19T03:01:31.102Z,73.28
2023-01-19T03:02:30.968Z,63.57
2023-01-19T03:03:30.915Z,72.28
2023-01-19T03:04:30.932Z,67.71
2023-01-19T03:05:31.021Z,71.82
2023-01-19T03:06:30.904Z,69.41
2023-01-19T03:07:30.924Z,72.55
2023-01-19T03:08:30.902Z,61.29
2023-01-19T03:09:30.938Z,64.80
2023-01-19T03:10:30.983Z,61.81
2023-01-19T03:11:30.910Z,71.18
2023-01-19T03:12:30.861Z,71.59
2023-01-19T03:13:30.885Z,70.77
2023-01-19T03:14:30.800Z,63.19
2023-01-19T03:15:30.902Z,66.83
2023-01-19T03:16:30.869Z,63.36
2023-01-19T03:17:31.031Z,65.42
2023-01-19T03:18:30.777Z,67.87
2023-01-19T03:19:30.829Z,60.90
2023-01-19T03:20:30.781Z,70.69
2023-01-19T03:21:30.796Z,70.70
2023-01-19T03:22:30.681Z,67.21
2023-01-19T03:23:30.834Z,61.84
2023-01-19T03:24:30.784Z,74.40
2023-01-19T03:25:30.702Z,73.92
2023-01-19T03:26:30.712Z,69.79
2023-01-19T03:27:30.754Z,73.34
2023-01-19T03:28:30.651Z,61.81
2023-01-19T03:29:30.650Z,66.64
2023-01-19T03:30:30.654Z,62.54
2023-01-19T03:31:30.711Z,71.68
2023-01-19T03:32:30.652Z,67.67
2023-01-19T03:33:30.672Z,62.91
2023-01-19T03:34:30.636Z,70.36
2023-01-19T03:35:30.643Z,73.28
2023-01-19T03:36:30.642Z,68.50
2023-01-19T03:37:30.602Z,73.72
2023-01-19T03:38:30.582Z,63.29
2023-01-19T03:39:30.546Z,71.99
2023-01-19T03:40:30.541Z,72.28
2023-01-19T03:41:30.621Z,72.65
2023-01-19T03:42:30.575Z,70.85
2023-01-19T03:43:30.519Z,62.37
2023-01-19T03:44:30.575Z,73.32
2023-01-19T03:45:30.452Z,69.88
2023-01-19T03:46:30.544Z,70.31
2023-01-19T03:47:30.569Z,72.28
2023-01-19T03:48:30.497Z,68.01
2023-01-19T03:49:30.456Z,72.09
2023-01-19T03:50:30.475Z,73.72
2023-01-19T03:51:30.485Z,59.00
2023-01-19T03:52:30.545Z,71.06
2023-01-19T03:53:30.441Z,72.56
2023-01-19T03:54:30.570Z,70.10
2023-01-19T03:55:30.424Z,74.51
2023-01-19T03:56:30.467Z,73.71
2023-01-19T03:57:30.410Z,70.61
2023-01-19T03:58:30.436Z,73.48
2023-01-19T03:59:30.432Z,69.85
2023-01-19T04:00:30.388Z,71.88
2023-01-19T04:01:30.440Z,70.83
2023-01-19T04:02:30.344Z,73.98
2023-01-19T04:03:30.312Z,73.26
2023-01-19T04:04:30.367Z,74.76
2023-01-19T04:05:30.303Z,72.69
2023-01-19T04:06:30.298Z,71.96
2023-01-19T04:07:30.336Z,71.91
2023-01-19T04:08:30.248Z,74.56
2023-01-19T04:09:30.238Z,76.34
2023-01-19T04:10:30.335Z,72.39
2023-01-19T04:11:30.308Z,75.63
2023-01-19T04:12:30.209Z,70.97
2023-01-19T04:13:30.207Z,75.96
2023-01-19T04:14:30.336Z,74.18
2023-01-19T04:15:30.192Z,73.00
2023-01-19T04:16:30.194Z,74.87
2023-01-19T04:17:30.216Z,73.45
2023-01-19T04:18:33.714Z,76.12
2023-01-19T04:19:30.187Z,76.67
2023-01-19T04:20:30.183Z,76.15
2023-01-19T04:21:30.132Z,75.47
2023-01-19T04:22:30.096Z,74.11
2023-01-19T04:23:30.155Z,74.22
2023-01-19T04:24:30.083Z,77.84
2023-01-19T04:25:30.029Z,75.09
2023-01-19T04:27:03.698Z,77.64
2023-01-19T04:27:30.108Z,77.05
2023-01-19T04:29:04.874Z,76.49
2023-01-19T04:29:30.086Z,76.22
2023-01-19T04:30:30.117Z,74.01
2023-01-19T04:31:30.065Z,76.08
2023-01-19T04:32:29.954Z,76.22
2023-01-19T04:34:02.391Z,73.85
2023-01-19T04:35:04.457Z,76.19
2023-01-19T04:36:04.236Z,75.76
2023-01-19T04:36:30.000Z,78.53
2023-01-19T04:37:30.035Z,79.16
2023-01-19T04:41:31.958Z,77.41
2023-01-19T04:42:31.797Z,77.01
2023-01-19T04:43:31.852Z,77.19
2023-01-19T04:44:31.876Z,77.41
2023-01-19T04:45:31.744Z,75.73
2023-01-19T04:46:31.752Z,75.13
2023-01-19T04:47:31.642Z,78.41
2023-01-19T04:48:31.647Z,78.61
2023-01-19T04:49:32.375Z,78.36
2023-01-19T04:50:31.650Z,77.34
2023-01-19T04:51:32.598Z,77.39
2023-01-19T04:52:31.858Z,78.02
2023-01-19T04:53:31.635Z,77.73
2023-01-19T04:54:31.611Z,76.57
2023-01-19T04:55:31.574Z,76.53
2023-01-19T04:56:31.572Z,77.45
2023-01-19T04:57:31.552Z,75.77
2023-01-19T04:58:31.530Z,77.02
2023-01-19T04:59:31.529Z,77.85
2023-01-19T05:00:31.526Z,77.39
2023-01-19T05:01:31.715Z,76.08
2023-01-19T05:02:31.532Z,76.51
2023-01-19T05:03:31.525Z,76.80
2023-01-19T05:04:31.469Z,77.59
2023-01-19T05:05:31.500Z,75.54
2023-01-19T05:06:31.464Z,78.98
2023-01-19T05:07:31.504Z,76.23
2023-01-19T05:08:31.515Z,76.87
2023-01-19T05:09:31.422Z,79.07
2023-01-19T05:10:31.363Z,78.67
2023-01-19T05:11:31.446Z,77.15
2023-01-19T05:12:31.404Z,78.78
2023-01-19T05:13:31.432Z,77.51
2023-01-19T05:14:31.392Z,76.86
2023-01-19T05:15:31.491Z,76.15
2023-01-19T05:16:31.376Z,77.05
2023-01-19T05:17:31.523Z,78.38
2023-01-19T05:18:31.351Z,77.54
2023-01-19T05:19:31.377Z,78.25
2023-01-19T05:20:31.305Z,79.43
2023-01-19T05:21:31.339Z,79.32
2023-01-19T05:22:31.295Z,78.19
2023-01-19T05:23:31.347Z,77.86
2023-01-19T05:24:31.331Z,76.76
2023-01-19T05:25:31.235Z,79.68
2023-01-19T05:26:31.279Z,79.96
2023-01-19T05:27:31.287Z,78.18
2023-01-19T05:28:31.231Z,79.61
2023-01-19T05:29:31.207Z,79.46
2023-01-19T05:30:31.258Z,80.58
2023-01-19T05:31:31.230Z,79.30
2023-01-19T05:32:31.749Z,79.12
2023-01-19T05:33:31.153Z,77.91
2023-01-19T05:34:31.160Z,78.66
2023-01-19T05:35:36.258Z,80.60
2023-01-19T05:36:33.195Z,80.85
2023-01-19T05:37:31.184Z,80.64
2023-01-19T05:38:35.308Z,80.50
2023-01-19T05:39:32.117Z,80.00
2023-01-19T05:40:31.150Z,80.95
2023-01-19T05:41:31.064Z,80.22
2023-01-19T05:42:32.820Z,79.95
2023-01-19T05:43:31.084Z,80.91
2023-01-19T05:44:31.106Z,80.90
2023-01-19T05:45:31.228Z,80.14
2023-01-19T05:46:31.022Z,78.86
2023-01-19T05:47:31.066Z,81.33
2023-01-19T05:48:31.315Z,80.19
2023-01-19T05:49:31.022Z,79.62
2023-01-19T05:50:31.162Z,78.00
2023-01-19T05:51:31.029Z,79.10
2023-01-19T05:52:30.993Z,81.01
2023-01-19T05:53:30.981Z,80.29
2023-01-19T05:54:30.917Z,79.26
2023-01-19T05:55:30.990Z,79.57
2023-01-19T05:56:30.949Z,79.46
2023-01-19T05:57:31.018Z,79.67
2023-01-19T05:58:31.029Z,79.97
2023-01-19T05:59:30.902Z,80.27
2023-01-19T06:00:30.901Z,77.38
2023-01-19T06:01:30.876Z,77.40
2023-01-19T06:02:31.139Z,79.44
2023-01-19T06:03:30.928Z,80.95
2023-01-19T06:04:30.900Z,77.77
2023-01-19T06:05:30.948Z,80.20
2023-01-19T06:06:30.859Z,79.27
2023-01-19T06:07:30.865Z,79.29
2023-01-19T06:08:31.094Z,80.79
2023-01-19T06:09:30.791Z,79.31
2023-01-19T06:10:30.756Z,79.41
2023-01-19T06:11:30.771Z,79.35
2023-01-19T06:12:30.841Z,78.97
2023-01-19T06:13:30.770Z,79.91
2023-01-19T06:14:30.721Z,78.37
2023-01-19T06:15:30.723Z,81.07
2023-01-19T06:16:30.776Z,80.27
2023-01-19T06:17:30.722Z,79.27
2023-01-19T06:18:30.686Z,80.25
2023-01-19T06:19:30.699Z,79.74
2023-01-19T06:20:30.667Z,80.26
2023-01-19T06:21:30.685Z,79.47
2023-01-19T06:22:30.648Z,78.61
2023-01-19T06:23:30.648Z,80.12
2023-01-19T06:24:30.643Z,80.37
2023-01-19T06:25:30.615Z,79.01
2023-01-19T06:26:30.599Z,79.93
2023-01-19T06:27:30.606Z,80.37
2023-01-19T06:28:30.614Z,81.04
2023-01-19T06:29:30.607Z,79.06
2023-01-19T06:30:30.578Z,80.70
2023-01-19T06:31:30.653Z,79.86
2023-01-19T06:32:30.530Z,80.87
2023-01-19T06:33:31.179Z,80.28
2023-01-19T06:34:30.555Z,80.57
2023-01-19T06:35:30.498Z,80.47
2023-01-19T06:36:30.523Z,79.13
2023-01-19T06:37:30.507Z,80.81
2023-01-19T06:38:30.491Z,80.26
2023-01-19T06:39:30.488Z,81.28
2023-01-19T06:40:30.555Z,79.90
2023-01-19T06:41:30.450Z,79.43
2023-01-19T06:42:30.469Z,81.00
2023-01-19T06:43:30.472Z,80.07
2023-01-19T06:44:30.446Z,81.16
2023-01-19T06:45:30.464Z,81.07
2023-01-19T06:46:30.399Z,79.48
2023-01-19T06:47:30.389Z,79.02
2023-01-19T06:48:30.423Z,79.09
2023-01-19T06:49:30.353Z,78.42
2023-01-19T06:50:30.379Z,78.81
2023-01-19T06:51:30.478Z,79.79
2023-01-19T06:53:03.035Z,80.00
2023-01-19T06:53:30.409Z,80.53
2023-01-19T06:54:30.368Z,79.30
2023-01-19T06:55:30.324Z,79.09
2023-01-19T06:56:30.361Z,79.38
2023-01-19T06:57:30.331Z,80.06
2023-01-19T06:58:30.338Z,79.05
2023-01-19T06:59:30.304Z,77.76
2023-01-19T07:00:30.338Z,74.72
2023-01-19T07:01:30.422Z,76.42
2023-01-19T07:02:30.445Z,80.53
2023-01-19T07:03:30.238Z,80.47
2023-01-19T07:04:30.256Z,79.74
2023-01-19T07:05:30.180Z,79.65
2023-01-19T07:06:30.198Z,78.99
2023-01-19T07:07:30.266Z,78.22
2023-01-19T07:08:30.168Z,78.08
2023-01-19T07:09:39.375Z,80.06
2023-01-19T07:11:25.617Z,79.26
2023-01-19T07:11:32.367Z,77.93
2023-01-19T07:12:30.125Z,78.00
2023-01-19T07:13:30.811Z,80.07
2023-01-19T07:14:30.129Z,80.83
2023-01-19T07:15:30.141Z,79.45
2023-01-19T07:16:30.134Z,78.73
2023-01-19T07:17:30.059Z,79.20
2023-01-19T07:18:30.097Z,78.40
2023-01-19T07:19:30.053Z,79.62
2023-01-19T07:20:30.032Z,78.54
2023-01-19T07:21:30.091Z,76.99
2023-01-19T07:22:30.051Z,78.55
2023-01-19T07:23:30.816Z,78.83
2023-01-19T07:24:30.019Z,78.94
2023-01-19T07:25:30.037Z,78.62
2023-01-19T07:26:30.021Z,78.69
2023-01-19T07:27:30.011Z,79.13
2023-01-19T07:28:30.128Z,79.77
2023-01-19T07:29:29.946Z,79.69
2023-01-19T07:30:30.073Z,78.08
2023-01-19T07:31:30.082Z,77.19
2023-01-19T07:32:29.937Z,78.52
2023-01-19T07:33:29.928Z,79.79
2023-01-19T07:34:29.896Z,78.55
2023-01-19T07:35:29.876Z,79.83
2023-01-19T07:37:02.957Z,79.04
2023-01-19T07:37:29.889Z,80.40
2023-01-19T07:38:29.850Z,79.23
2023-01-19T07:39:29.903Z,79.28
2023-01-19T07:40:29.867Z,77.69
2023-01-19T07:41:29.863Z,77.93
2023-01-19T07:42:29.816Z,77.59
2023-01-19T07:43:29.872Z,77.85
2023-01-19T07:44:29.821Z,79.41
2023-01-19T07:45:29.855Z,78.08
2023-01-19T07:46:29.815Z,77.63
2023-01-19T07:47:29.848Z,77.49
2023-01-19T07:48:29.825Z,76.46
2023-01-19T07:49:29.784Z,80.23
2023-01-19T07:50:29.794Z,78.70
2023-01-19T07:51:29.824Z,78.73
2023-01-19T07:52:29.723Z,78.25
2023-01-19T07:53:29.724Z,77.34
2023-01-19T07:54:29.785Z,77.21
2023-01-19T07:55:29.731Z,78.31
2023-01-19T07:56:30.784Z,78.08
2023-01-19T07:57:29.788Z,77.67
2023-01-19T07:58:29.730Z,79.52
2023-01-19T07:59:29.679Z,76.59
2023-01-19T08:00:29.695Z,76.83
2023-01-19T08:01:29.731Z,78.08
2023-01-19T08:02:29.729Z,76.17
2023-01-19T08:03:29.673Z,77.54
2023-01-19T08:04:29.671Z,77.94
2023-01-19T08:05:29.600Z,77.68
2023-01-19T08:06:29.619Z,78.08
2023-01-19T08:07:29.643Z,77.38
2023-01-19T08:08:29.592Z,77.70
2023-01-19T08:09:29.533Z,78.19
2023-01-19T08:10:29.578Z,76.81
2023-01-19T08:11:29.518Z,78.76
2023-01-19T08:12:29.596Z,78.05
2023-01-19T08:13:29.550Z,79.28
2023-01-19T08:14:29.512Z,77.31
2023-01-19T08:15:29.598Z,77.43
2023-01-19T08:16:29.505Z,75.61
2023-01-19T08:17:29.777Z,77.68
2023-01-19T08:18:29.569Z,77.49
2023-01-19T08:19:29.494Z,74.43
2023-01-19T08:20:29.436Z,77.71
2023-01-19T08:21:29.485Z,79.89
2023-01-19T08:22:29.441Z,79.65
2023-01-19T08:23:29.444Z,79.01
2023-01-19T08:24:29.396Z,79.29
2023-01-19T08:25:29.401Z,76.84
2023-01-19T08:26:29.439Z,78.20
2023-01-19T08:27:29.413Z,74.98
2023-01-19T08:28:29.366Z,77.20
2023-01-19T08:29:29.462Z,77.12
2023-01-19T08:30:29.402Z,79.69
2023-01-19T08:31:29.458Z,75.95
2023-01-19T08:32:29.367Z,77.68
2023-01-19T08:33:29.327Z,78.47
2023-01-19T08:34:29.361Z,80.36
2023-01-19T08:35:29.341Z,78.84
2023-01-19T08:36:29.281Z,78.98
2023-01-19T08:37:29.253Z,78.47
2023-01-19T08:38:29.363Z,78.96
2023-01-19T08:39:29.254Z,77.31
2023-01-19T08:40:29.271Z,76.97
2023-01-19T08:41:29.815Z,78.34
2023-01-19T08:42:29.184Z,77.48
2023-01-19T08:43:29.197Z,79.29
2023-01-19T08:44:29.165Z,80.55
2023-01-19T08:45:29.197Z,78.84
2023-01-19T08:46:29.251Z,78.67
2023-01-19T08:47:29.228Z,78.20
2023-01-19T08:48:29.121Z,78.13
2023-01-19T08:49:29.216Z,80.06
2023-01-19T08:50:29.204Z,78.76
2023-01-19T08:51:29.088Z,77.87
2023-01-19T08:52:29.118Z,77.37
2023-01-19T08:53:29.095Z,77.13
2023-01-19T08:54:29.161Z,77.55
2023-01-19T08:55:29.079Z,79.29
2023-01-19T08:56:29.113Z,79.36
2023-01-19T08:57:29.100Z,77.47
2023-01-19T08:58:29.107Z,79.78
2023-01-19T08:59:29.059Z,75.87
2023-01-19T09:00:29.031Z,75.36
2023-01-19T09:01:29.076Z,77.95
2023-01-19T09:02:29.098Z,78.31
2023-01-19T09:03:29.159Z,77.42
2023-01-19T09:04:28.975Z,79.53
2023-01-19T09:05:29.021Z,77.27
2023-01-19T09:06:28.988Z,77.42
2023-01-19T09:07:30.561Z,76.56
2023-01-19T09:08:28.962Z,79.11
2023-01-19T09:09:28.985Z,78.50
2023-01-19T09:10:28.939Z,78.18
2023-01-19T09:11:28.895Z,76.58
2023-01-19T09:12:28.931Z,76.55
2023-01-19T09:13:28.929Z,76.67
2023-01-19T09:14:28.912Z,78.35
2023-01-19T09:15:28.896Z,80.20
2023-01-19T09:16:28.893Z,78.27
2023-01-19T09:17:28.887Z,77.91
2023-01-19T09:18:28.860Z,79.18
2023-01-19T09:19:28.872Z,78.00
2023-01-19T09:20:28.852Z,78.65
2023-01-19T09:21:28.822Z,78.44
2023-01-19T09:22:28.827Z,75.14
2023-01-19T09:23:28.759Z,75.85
2023-01-19T09:24:28.839Z,75.70
2023-01-19T09:25:28.773Z,77.76
2023-01-19T09:26:28.730Z,75.86
2023-01-19T09:27:28.742Z,78.89
2023-01-19T09:28:28.748Z,75.25
2023-01-19T09:29:28.750Z,75.21
2023-01-19T09:30:28.665Z,74.89
2023-01-19T09:31:28.763Z,76.60
2023-01-19T09:32:28.717Z,75.55
2023-01-19T09:33:28.662Z,76.81
2023-01-19T09:34:28.669Z,74.65
2023-01-19T09:35:28.625Z,76.25
2023-01-19T09:36:28.617Z,75.87
2023-01-19T09:37:28.613Z,75.96
2023-01-19T09:38:28.676Z,75.72
2023-01-19T09:39:29.315Z,78.00
2023-01-19T09:40:28.614Z,74.45
2023-01-19T09:41:28.569Z,76.29
2023-01-19T09:42:28.570Z,78.10
2023-01-19T09:43:28.632Z,76.85
2023-01-19T09:44:28.546Z,77.02
2023-01-19T09:45:28.581Z,77.87
2023-01-19T09:46:28.657Z,76.41
2023-01-19T09:47:28.567Z,76.36
2023-01-19T09:48:28.525Z,78.24
2023-01-19T09:49:28.530Z,78.18
2023-01-19T09:50:28.511Z,78.99
2023-01-19T09:51:28.503Z,77.66
2023-01-19T09:52:28.496Z,78.25
2023-01-19T09:53:28.496Z,74.25
2023-01-19T09:54:28.462Z,78.37
2023-01-19T09:55:28.430Z,75.01
2023-01-19T09:56:28.444Z,78.68
2023-01-19T09:57:28.486Z,79.16
2023-01-19T09:58:28.448Z,77.10
2023-01-19T09:59:28.429Z,77.53
2023-01-19T10:00:28.429Z,79.58
2023-01-19T10:01:28.591Z,77.72
2023-01-19T10:02:28.358Z,76.21
2023-01-19T10:03:28.379Z,77.20
2023-01-19T10:04:28.582Z,78.82
2023-01-19T10:05:28.371Z,75.26
2023-01-19T10:06:28.389Z,77.24
2023-01-19T10:07:28.358Z,76.76
2023-01-19T10:08:28.359Z,77.40
2023-01-19T10:09:28.324Z,78.10
2023-01-19T10:10:28.352Z,80.19
2023-01-19T10:11:34.506Z,77.50
2023-01-19T10:12:30.298Z,80.34
2023-01-19T10:13:28.289Z,80.85
2023-01-19T10:14:28.259Z,78.87
2023-01-19T10:15:28.269Z,77.26
2023-01-19T10:16:28.253Z,77.26
2023-01-19T10:17:28.289Z,77.00
2023-01-19T10:18:28.241Z,75.91
2023-01-19T10:19:28.168Z,79.22
2023-01-19T10:20:28.206Z,75.47
2023-01-19T10:21:28.266Z,79.04
2023-01-19T10:22:28.193Z,77.33
2023-01-19T10:23:28.191Z,78.81
2023-01-19T10:24:28.142Z,78.90
2023-01-19T10:25:28.827Z,73.60
2023-01-19T10:26:29.131Z,76.85
2023-01-19T10:27:28.119Z,78.61
2023-01-19T10:28:28.184Z,75.92
2023-01-19T10:29:28.133Z,75.40
2023-01-19T10:30:28.115Z,75.82
2023-01-19T10:31:28.212Z,78.66
2023-01-19T10:32:28.066Z,77.98
2023-01-19T10:33:28.123Z,74.23
2023-01-19T10:34:28.088Z,78.90
2023-01-19T10:35:28.065Z,73.82
2023-01-19T10:36:28.105Z,77.00
2023-01-19T10:37:28.069Z,77.46
2023-01-19T10:38:28.071Z,78.69
2023-01-19T10:39:27.970Z,76.65
2023-01-19T10:40:28.028Z,74.14
2023-01-19T10:41:27.972Z,78.30
2023-01-19T10:42:28.014Z,80.07
2023-01-19T10:43:28.002Z,78.42
2023-01-19T10:44:27.950Z,76.58
2023-01-19T10:45:28.065Z,78.58
2023-01-19T10:46:27.949Z,77.14
2023-01-19T10:47:27.990Z,76.82
2023-01-19T10:48:27.947Z,78.89
2023-01-19T10:49:27.925Z,78.98
2023-01-19T10:50:27.838Z,78.26
2023-01-19T10:51:27.892Z,78.96
2023-01-19T10:52:28.918Z,77.59
2023-01-19T10:53:27.825Z,79.28
2023-01-19T10:54:27.819Z,75.90
2023-01-19T10:55:27.816Z,78.56
2023-01-19T10:56:27.821Z,75.21
2023-01-19T10:57:27.794Z,75.88
2023-01-19T10:58:27.783Z,78.10
2023-01-19T10:59:27.745Z,76.03
2023-01-19T11:00:27.744Z,76.86
2023-01-19T11:01:27.786Z,77.03
2023-01-19T11:02:27.939Z,78.77
2023-01-19T11:03:27.853Z,77.96
2023-01-19T11:04:27.760Z,78.08
2023-01-19T11:05:27.758Z,78.65
2023-01-19T11:06:27.678Z,78.09
2023-01-19T11:07:28.228Z,78.58
2023-01-19T11:08:28.653Z,77.02
2023-01-19T11:09:27.725Z,77.54
2023-01-19T11:10:27.616Z,77.93
2023-01-19T11:11:27.628Z,79.45
2023-01-19T11:12:27.592Z,75.62
2023-01-19T11:13:27.638Z,78.49
2023-01-19T11:14:27.591Z,77.42
2023-01-19T11:15:27.612Z,75.59
2023-01-19T11:16:27.648Z,77.19
2023-01-19T11:17:27.609Z,79.03
2023-01-19T11:18:27.615Z,78.66
2023-01-19T11:19:27.558Z,79.14
2023-01-19T11:20:27.589Z,77.69
2023-01-19T11:21:27.537Z,77.28
2023-01-19T11:22:27.557Z,79.67
2023-01-19T11:23:27.527Z,78.58
2023-01-19T11:24:27.489Z,80.13
2023-01-19T11:25:27.536Z,77.54
2023-01-19T11:26:28.331Z,78.43
2023-01-19T11:27:27.493Z,78.64
2023-01-19T11:28:27.459Z,79.14
2023-01-19T11:29:27.418Z,79.42
2023-01-19T11:30:27.473Z,76.42
2023-01-19T11:31:27.493Z,78.10
2023-01-19T11:32:27.401Z,77.24
2023-01-19T11:33:27.517Z,77.75
2023-01-19T11:34:27.444Z,77.89
2023-01-19T11:35:27.410Z,78.19
2023-01-19T11:36:27.384Z,78.94
2023-01-19T11:37:27.379Z,78.83
2023-01-19T11:38:27.771Z,78.93
2023-01-19T11:39:27.365Z,80.10
2023-01-19T11:40:27.312Z,78.18
2023-01-19T11:41:27.362Z,78.38
2023-01-19T11:42:27.385Z,78.10
2023-01-19T11:43:31.860Z,78.56
2023-01-19T11:44:29.312Z,79.09
2023-01-19T11:45:27.384Z,77.35
2023-01-19T11:46:27.278Z,78.55
2023-01-19T11:47:27.224Z,78.74
2023-01-19T11:48:27.330Z,78.78
2023-01-19T11:49:27.228Z,76.62
2023-01-19T11:50:27.193Z,77.46
2023-01-19T11:51:27.338Z,78.58
2023-01-19T11:52:27.174Z,76.56
2023-01-19T11:53:27.236Z,75.68
2023-01-19T11:54:27.471Z,78.67
2023-01-19T11:55:27.143Z,78.08
2023-01-19T11:56:27.170Z,78.85
2023-01-19T11:57:27.119Z,79.12
2023-01-19T11:58:27.140Z,75.81
2023-01-19T11:59:27.096Z,78.76
2023-01-19T12:00:27.090Z,78.50
2023-01-19T12:01:27.142Z,78.10
2023-01-19T12:02:27.214Z,77.03
2023-01-19T12:03:27.071Z,76.49
2023-01-19T12:04:27.147Z,77.98
2023-01-19T12:05:27.042Z,77.14
2023-01-19T12:06:27.012Z,77.04
2023-01-19T12:07:27.020Z,81.32
2023-01-19T12:08:27.036Z,78.69
2023-01-19T12:09:27.648Z,77.22
2023-01-19T12:10:26.984Z,77.78
2023-01-19T12:11:26.962Z,78.54
2023-01-19T12:12:26.986Z,77.83
2023-01-19T12:13:26.934Z,77.60
2023-01-19T12:14:26.924Z,78.40
2023-01-19T12:15:26.920Z,77.60
2023-01-19T12:16:26.929Z,79.80
2023-01-19T12:17:26.889Z,79.04
2023-01-19T12:18:26.955Z,79.72
2023-01-19T12:19:26.941Z,79.39
2023-01-19T12:20:26.879Z,77.46
2023-01-19T12:21:26.889Z,77.72
2023-01-19T12:22:26.851Z,78.43
2023-01-19T12:23:27.093Z,78.28
2023-01-19T12:24:26.884Z,79.07
2023-01-19T12:25:26.791Z,76.76
2023-01-19T12:26:27.753Z,79.70
2023-01-19T12:27:26.948Z,77.85
2023-01-19T12:28:26.806Z,75.24
2023-01-19T12:29:26.875Z,77.27
2023-01-19T12:30:26.777Z,76.93
2023-01-19T12:31:26.894Z,78.51
2023-01-19T12:32:26.710Z,78.90
2023-01-19T12:33:26.714Z,75.87
2023-01-19T12:34:26.708Z,75.94
2023-01-19T12:35:26.718Z,75.56
2023-01-19T12:36:26.885Z,74.64
2023-01-19T12:37:27.344Z,75.77
2023-01-19T12:38:26.630Z,76.43
2023-01-19T12:39:26.612Z,76.67
2023-01-19T12:40:26.694Z,76.88
2023-01-19T12:41:26.618Z,77.45
2023-01-19T12:42:26.574Z,77.50
2023-01-19T12:43:26.613Z,75.21
2023-01-19T12:44:26.587Z,75.62
2023-01-19T12:45:26.657Z,74.47
2023-01-19T12:46:26.647Z,74.77
2023-01-19T12:47:26.661Z,76.52
2023-01-19T12:48:26.557Z,75.68
2023-01-19T12:49:26.551Z,75.30
2023-01-19T12:50:26.507Z,72.50
2023-01-19T12:51:26.522Z,72.80
2023-01-19T12:52:26.491Z,73.79
2023-01-19T12:53:26.544Z,76.75
2023-01-19T12:54:26.538Z,75.23
2023-01-19T12:55:26.443Z,75.30